Time;durP1;ratioP1;P1;durP2;ratioP2;P2;SDS_P1;SDS_P2;PMS_P1;PMS_P2;Temp;Humidity;BMP_temperature;BMP_pressure;BME280_temperature;BME280_humidity;BME280_pressure;Samples;Min_cycle;Max_cycle;Signal;HPM_P1;HPM_P2
2022/01/16 00:06:13;;;;;;;22.37;7.27;;;-0.60;99.90;;;;;;5015264;28;20531;-60
2022/01/16 00:08:39;;;;;;;21.20;7.77;;;-0.60;99.90;;;;;;5015097;28;20184;-60
2022/01/16 00:11:04;;;;;;;12.77;5.43;;;-0.50;99.90;;;;;;4997214;28;20177;-60
2022/01/16 00:13:31;;;;;;;21.83;7.53;;;-0.60;99.90;;;;;;5014814;28;20242;-60
2022/01/16 00:15:56;;;;;;;18.80;7.03;;;-0.60;99.90;;;;;;5014456;28;20235;-61
2022/01/16 00:18:26;;;;;;;23.70;8.00;;;-0.60;99.90;;;;;;5014610;28;20215;-59
2022/01/16 00:20:52;;;;;;;17.77;7.30;;;-0.60;99.90;;;;;;5014797;28;20727;-58
2022/01/16 00:23:24;;;;;;;20.80;7.97;;;-0.60;99.90;;;;;;4997372;28;20190;-61
2022/01/16 00:25:56;;;;;;;17.00;7.90;;;-0.60;99.90;;;;;;4996884;28;20640;-60
2022/01/16 00:28:24;;;;;;;18.07;7.80;;;-0.60;99.90;;;;;;5011065;28;20203;-60
2022/01/16 00:30:51;;;;;;;22.67;8.00;;;-0.60;99.90;;;;;;4961639;28;20191;-60
2022/01/16 00:33:17;;;;;;;16.47;7.40;;;-0.60;99.90;;;;;;4994778;28;20242;-60
2022/01/16 00:35:43;;;;;;;22.67;7.50;;;-0.60;99.90;;;;;;4995100;28;20212;-60
2022/01/16 00:38:09;;;;;;;16.97;7.50;;;-0.70;99.90;;;;;;4994788;28;20252;-60
2022/01/16 00:40:36;;;;;;;16.97;6.70;;;-0.70;99.90;;;;;;4977538;28;20275;-60
2022/01/16 00:43:02;;;;;;;22.13;8.13;;;-0.70;99.90;;;;;;4994795;28;20183;-60
2022/01/16 00:45:34;;;;;;;21.33;8.43;;;-0.70;99.90;;;;;;4994970;28;20189;-60
2022/01/16 00:48:02;;;;;;;16.93;7.87;;;-0.70;99.90;;;;;;4994986;28;20645;-60
2022/01/16 00:50:28;;;;;;;20.53;7.80;;;-0.60;99.90;;;;;;4994620;28;20208;-60
2022/01/16 00:52:54;;;;;;;21.33;7.70;;;-0.60;99.90;;;;;;4976875;28;20600;-61
2022/01/16 00:55:20;;;;;;;18.87;7.83;;;-0.70;99.90;;;;;;4994612;28;20295;-60
2022/01/16 00:57:45;;;;;;;23.27;8.27;;;-0.70;99.90;;;;;;4994781;28;20613;-60
2022/01/16 01:00:12;;;;;;;20.40;7.40;;;-0.70;99.90;;;;;;4976989;28;20216;-60
2022/01/16 01:02:38;;;;;;;24.97;8.30;;;-0.80;99.90;;;;;;4994472;28;20188;-61
2022/01/16 01:05:04;;;;;;;18.93;7.93;;;-0.80;99.90;;;;;;5011563;28;20244;-60
2022/01/16 01:07:29;;;;;;;21.23;8.30;;;-0.80;99.90;;;;;;5013792;28;20271;-60
2022/01/16 01:09:55;;;;;;;21.00;7.40;;;-0.90;99.90;;;;;;5013659;28;20280;-60
2022/01/16 01:12:30;;;;;;;23.73;8.23;;;-0.90;99.90;;;;;;5013781;28;20187;-60
2022/01/16 01:15:08;;;;;;;18.20;8.40;;;-1.00;99.90;;;;;;5013713;28;20215;-59
2022/01/16 01:17:43;;;;;;;24.83;8.73;;;-0.90;99.90;;;;;;5014047;28;20198;-60
2022/01/16 01:20:10;;;;;;;18.70;5.37;;;-1.00;99.90;;;;;;5013452;28;20239;-61
2022/01/16 01:22:36;;;;;;;24.40;7.63;;;-1.00;99.90;;;;;;5013834;28;20215;-59
2022/01/16 01:25:02;;;;;;;19.67;8.63;;;-1.00;99.90;;;;;;5013494;28;20207;-59
2022/01/16 01:27:31;;;;;;;25.73;8.27;;;-1.00;99.90;;;;;;5013677;28;20187;-59
2022/01/16 01:30:05;;;;;;;20.83;8.27;;;-1.00;99.90;;;;;;4997068;28;20212;-61
2022/01/16 01:32:32;;;;;;;26.23;8.67;;;-1.00;99.90;;;;;;4994096;28;20179;-60
2022/01/16 01:35:00;;;;;;;19.33;8.47;;;-1.00;99.90;;;;;;4993414;28;20212;-60
2022/01/16 01:37:26;;;;;;;26.27;8.23;;;-1.10;99.90;;;;;;4994103;28;20632;-60
2022/01/16 01:39:51;;;;;;;24.90;8.33;;;-1.10;99.90;;;;;;4993421;28;20636;-60
2022/01/16 01:42:17;;;;;;;23.73;9.30;;;-1.10;99.90;;;;;;4993836;28;20195;-60
2022/01/16 01:52:57;;;;;;;25.33;8.87;;;-1.10;99.90;;;;;;4993626;28;20172;-60
2022/01/16 01:55:24;;;;;;;22.30;8.03;;;-1.10;99.90;;;;;;4993426;28;20209;-59
2022/01/16 01:57:51;;;;;;;18.67;8.17;;;-1.10;99.90;;;;;;4993713;28;20188;-62
2022/01/16 02:00:17;;;;;;;22.13;8.70;;;-1.10;99.90;;;;;;4993649;28;20184;-59
2022/01/16 02:05:30;;;;;;;29.20;9.40;;;-1.30;99.90;;;;;;4993391;28;20687;-59
2022/01/16 02:07:56;;;;;;;23.43;7.93;;;-1.30;99.90;;;;;;4993327;28;20184;-60
2022/01/16 02:10:23;;;;;;;22.13;5.70;;;-1.30;99.90;;;;;;4993214;28;20176;-59
2022/01/16 02:12:55;;;;;;;25.00;8.77;;;-1.30;99.90;;;;;;4993448;28;20594;-59
2022/01/16 02:15:50;;;;;;;22.63;8.00;;;-1.30;99.90;;;;;;4993346;28;20719;-59
2022/01/16 02:37:00;;;;;;;14.93;6.20;;;-1.70;99.90;;;;;;4992756;28;20225;-61
2022/01/16 02:39:28;;;;;;;20.90;8.07;;;-1.80;99.90;;;;;;4993068;28;20278;-60
2022/01/16 02:41:55;;;;;;;22.70;6.47;;;-1.80;99.90;;;;;;4992712;28;20176;-60
2022/01/16 02:46:47;;;;;;;22.40;8.43;;;-1.80;99.90;;;;;;4992816;28;20191;-60
2022/01/16 02:49:28;;;;;;;18.83;7.93;;;-1.90;99.90;;;;;;4991670;28;20192;-60
2022/01/16 02:52:03;;;;;;;20.73;7.70;;;-1.90;99.90;;;;;;4992402;28;20168;-63
2022/01/16 02:54:34;;;;;;;22.00;7.97;;;-1.90;99.90;;;;;;4992680;28;20212;-60
2022/01/16 02:57:00;;;;;;;28.23;8.80;;;-1.90;99.90;;;;;;4992080;28;20643;-60
2022/01/16 02:59:26;;;;;;;23.73;8.57;;;-1.90;99.90;;;;;;4992722;28;20180;-59
2022/01/16 03:01:52;;;;;;;22.50;8.30;;;-1.90;99.90;;;;;;4992283;28;20195;-60
2022/01/16 03:04:18;;;;;;;23.47;9.30;;;-2.00;99.90;;;;;;5003291;28;20246;-61
2022/01/16 03:06:43;;;;;;;23.33;8.53;;;-2.10;99.90;;;;;;5012029;28;20183;-59
2022/01/16 03:09:10;;;;;;;21.17;8.37;;;-2.30;99.90;;;;;;5011935;28;20699;-59
2022/01/16 03:11:46;;;;;;;22.13;8.30;;;-2.40;99.90;;;;;;4994680;28;20176;-61
2022/01/16 03:14:14;;;;;;;20.07;8.57;;;-2.40;99.90;;;;;;5011683;28;20171;-61
2022/01/16 03:16:47;;;;;;;20.63;8.63;;;-2.40;99.90;;;;;;5011998;28;20596;-59
2022/01/16 03:22:02;;;;;;;23.03;8.80;;;-2.50;99.90;;;;;;5011413;28;20169;-59
2022/01/16 03:24:42;;;;;;;18.90;8.80;;;-2.60;99.90;;;;;;5011987;28;20214;-61
2022/01/16 03:27:17;;;;;;;21.40;8.57;;;-2.50;99.90;;;;;;5011384;28;20592;-61
2022/01/16 03:29:46;;;;;;;25.83;9.27;;;-2.40;99.90;;;;;;4997316;28;20190;-61
2022/01/16 03:32:18;;;;;;;25.80;9.10;;;-2.40;99.90;;;;;;4992267;28;20191;-60
2022/01/16 03:34:45;;;;;;;25.23;8.60;;;-2.30;99.90;;;;;;4992155;28;20192;-59
2022/01/16 03:37:11;;;;;;;19.87;8.97;;;-2.20;99.90;;;;;;4991988;28;20265;-60
2022/01/16 03:39:37;;;;;;;22.47;9.33;;;-2.10;99.90;;;;;;4992151;28;20613;-59
2022/01/16 03:42:04;;;;;;;27.33;9.50;;;-2.10;99.90;;;;;;4991843;28;20184;-60
2022/01/16 03:44:30;;;;;;;27.23;9.53;;;-2.00;99.90;;;;;;4992225;28;20194;-59
2022/01/16 03:46:56;;;;;;;25.33;10.27;;;-1.90;99.90;;;;;;4991952;28;20188;-59
2022/01/16 03:49:25;;;;;;;25.87;9.70;;;-1.90;99.90;;;;;;4992335;28;20208;-59
2022/01/16 03:51:52;;;;;;;25.67;9.10;;;-1.80;99.90;;;;;;4974439;28;20235;-59
2022/01/16 03:54:22;;;;;;;20.30;9.00;;;-1.80;99.90;;;;;;4974279;28;20187;-60
2022/01/16 03:56:48;;;;;;;24.23;9.27;;;-1.80;99.90;;;;;;4992158;28;20537;-59
2022/01/16 03:59:15;;;;;;;20.63;9.50;;;-1.70;99.90;;;;;;4992134;28;20190;-61
2022/01/16 04:01:41;;;;;;;20.43;8.97;;;-1.70;99.90;;;;;;4995596;28;20183;-60
2022/01/16 04:04:07;;;;;;;16.43;6.93;;;-1.80;99.90;;;;;;5004857;28;20190;-60
2022/01/16 04:06:33;;;;;;;19.03;8.67;;;-1.80;99.90;;;;;;5014808;28;20238;-59
2022/01/16 04:08:59;;;;;;;21.13;8.53;;;-1.90;99.90;;;;;;5014760;28;20183;-61
2022/01/16 04:11:27;;;;;;;24.17;9.47;;;-2.00;99.90;;;;;;4997663;28;20195;-60
2022/01/16 04:14:03;;;;;;;22.97;9.43;;;-2.10;99.90;;;;;;5014994;28;20195;-60
2022/01/16 04:16:30;;;;;;;29.57;9.20;;;-2.20;99.90;;;;;;5015030;28;20255;-59
2022/01/16 04:18:56;;;;;;;24.03;9.43;;;-2.20;99.90;;;;;;5014662;28;20275;-60
2022/01/16 04:21:24;;;;;;;22.47;9.77;;;-2.10;99.90;;;;;;5014661;28;20183;-59
2022/01/16 04:23:51;;;;;;;22.37;10.03;;;-2.20;99.90;;;;;;5014459;28;20186;-60
2022/01/16 04:26:18;;;;;;;24.17;9.70;;;-2.30;99.90;;;;;;4981005;28;20187;-60
2022/01/16 04:28:46;;;;;;;25.20;9.00;;;-2.40;99.90;;;;;;5008294;28;20339;-59
2022/01/16 04:31:13;;;;;;;26.13;9.90;;;-2.50;99.90;;;;;;4994635;28;20264;-59
2022/01/16 04:33:39;;;;;;;22.07;9.00;;;-2.60;99.90;;;;;;4995408;28;20180;-59
2022/01/16 04:36:06;;;;;;;21.93;9.13;;;-2.70;99.90;;;;;;4994426;28;21047;-59
2022/01/16 04:38:33;;;;;;;20.63;9.07;;;-2.80;99.90;;;;;;4994973;28;20632;-60
2022/01/16 04:43:52;;;;;;;29.13;9.67;;;-3.00;99.90;;;;;;4995008;28;20166;-59
2022/01/16 04:46:25;;;;;;;26.40;9.80;;;-3.10;99.90;;;;;;4994829;28;20183;-59
2022/01/16 04:48:52;;;;;;;26.40;9.07;;;-3.10;99.90;;;;;;4995178;28;20195;-59
2022/01/16 04:51:18;;;;;;;20.97;8.60;;;-3.20;99.90;;;;;;4995000;28;20187;-59
2022/01/16 04:53:44;;;;;;;19.33;8.47;;;-3.30;99.90;;;;;;4995568;28;20709;-59
2022/01/16 04:56:10;;;;;;;25.10;8.30;;;-3.30;99.90;;;;;;4994324;28;20218;-59
2022/01/16 04:58:38;;;;;;;22.80;9.03;;;-3.40;99.90;;;;;;4977363;28;20651;-60
2022/01/16 05:01:04;;;;;;;19.07;8.60;;;-3.30;99.90;;;;;;4993933;28;20270;-59
2022/01/16 05:03:31;;;;;;;22.77;9.53;;;-3.40;99.90;;;;;;4994545;28;20658;-59
2022/01/16 05:05:57;;;;;;;23.53;9.37;;;-3.50;99.90;;;;;;4994726;28;20190;-61
2022/01/16 05:08:23;;;;;;;22.37;8.40;;;-3.40;99.90;;;;;;4976728;28;20198;-60
2022/01/16 05:10:53;;;;;;;22.87;8.47;;;-3.40;99.90;;;;;;4994043;28;20227;-59
2022/01/16 05:18:35;;;;;;;24.20;9.03;;;-3.40;99.90;;;;;;4994374;28;20235;-60
2022/01/16 05:21:01;;;;;;;25.40;9.17;;;-3.40;99.90;;;;;;4994496;28;20179;-60
2022/01/16 05:23:27;;;;;;;20.33;8.93;;;-3.50;99.90;;;;;;4993444;28;20193;-60
2022/01/16 05:25:53;;;;;;;25.00;9.40;;;-3.60;99.90;;;;;;4994089;28;20272;-60
2022/01/16 05:28:20;;;;;;;25.20;8.37;;;-3.70;99.90;;;;;;4993796;28;20629;-59
2022/01/16 05:30:46;;;;;;;20.97;8.10;;;-3.80;99.90;;;;;;4994159;28;20174;-60
2022/01/16 05:33:11;;;;;;;21.33;7.90;;;-3.90;99.90;;;;;;4976474;28;20684;-59
2022/01/16 05:35:37;;;;;;;20.27;7.33;;;-4.00;99.90;;;;;;4994233;28;20219;-59
2022/01/16 05:38:03;;;;;;;24.80;8.87;;;-4.00;99.90;;;;;;4993640;28;20182;-62
2022/01/16 05:40:29;;;;;;;16.80;7.47;;;-4.00;99.90;;;;;;4976619;28;20191;-59
2022/01/16 05:42:56;;;;;;;20.10;7.27;;;-4.10;99.90;;;;;;4993801;28;20182;-59
2022/01/16 05:45:22;;;;;;;19.27;7.70;;;-4.20;99.90;;;;;;4993698;28;20245;-60
2022/01/16 05:47:48;;;;;;;19.93;8.10;;;-4.20;99.90;;;;;;4993399;28;20209;-59
2022/01/16 05:50:14;;;;;;;21.47;7.97;;;-4.20;99.90;;;;;;4993602;28;20187;-59
2022/01/16 05:52:40;;;;;;;21.33;7.23;;;-4.30;99.90;;;;;;4993609;28;20279;-60
2022/01/16 05:55:06;;;;;;;18.23;7.73;;;-4.30;99.90;;;;;;4993168;28;20214;-58
2022/01/16 05:57:32;;;;;;;14.80;6.43;;;-4.30;99.90;;;;;;4993730;28;20178;-60
2022/01/16 05:59:58;;;;;;;23.97;7.23;;;-4.30;99.90;;;;;;4993762;28;20937;-59
2022/01/16 06:02:25;;;;;;;18.17;7.00;;;-4.30;99.90;;;;;;4975831;28;20192;-61
2022/01/16 06:04:51;;;;;;;18.73;6.23;;;-4.30;99.90;;;;;;5009299;28;20212;-61
2022/01/16 06:07:17;;;;;;;22.30;7.03;;;-4.30;99.90;;;;;;5012743;28;20253;-60
2022/01/16 06:09:43;;;;;;;20.33;7.27;;;-4.30;99.90;;;;;;5012946;28;20679;-59
2022/01/16 06:12:09;;;;;;;18.90;7.10;;;-4.40;99.90;;;;;;4995043;28;20195;-61
2022/01/16 06:14:35;;;;;;;27.50;9.17;;;-4.40;99.90;;;;;;5013097;28;20217;-61
2022/01/16 06:17:00;;;;;;;18.63;5.87;;;-4.40;99.90;;;;;;5013015;28;20182;-60
2022/01/16 06:19:26;;;;;;;16.63;5.83;;;-4.50;99.90;;;;;;5012142;28;20739;-60
2022/01/16 06:21:52;;;;;;;14.73;5.93;;;-4.40;99.90;;;;;;5012555;28;20239;-60
2022/01/16 06:24:17;;;;;;;15.93;6.73;;;-4.40;99.90;;;;;;5012546;28;20219;-60
2022/01/16 06:26:43;;;;;;;14.07;5.90;;;-4.40;99.90;;;;;;5012733;28;20262;-60
2022/01/16 06:29:09;;;;;;;26.33;6.43;;;-4.50;99.90;;;;;;5002473;28;20192;-60
2022/01/16 06:31:35;;;;;;;18.27;6.97;;;-4.60;99.90;;;;;;4993051;28;20188;-60
2022/01/16 06:34:04;;;;;;;17.03;6.67;;;-4.60;99.90;;;;;;4993041;28;20187;-60
2022/01/16 06:36:29;;;;;;;21.90;7.37;;;-4.60;99.90;;;;;;4992444;28;20218;-60
2022/01/16 06:38:56;;;;;;;20.50;7.60;;;-4.60;99.90;;;;;;4992914;28;20185;-61
2022/01/16 06:41:22;;;;;;;22.17;6.67;;;-4.50;99.90;;;;;;4992527;28;20536;-60
2022/01/16 06:43:48;;;;;;;15.30;6.40;;;-4.40;99.90;;;;;;4992592;28;20273;-58
2022/01/16 06:46:14;;;;;;;19.53;6.40;;;-4.40;99.90;;;;;;4974730;28;20271;-60
2022/01/16 06:48:42;;;;;;;22.13;8.13;;;-4.40;99.90;;;;;;4992261;28;20621;-60
2022/01/16 06:51:08;;;;;;;24.80;7.80;;;-4.40;99.90;;;;;;4975156;28;20293;-62
2022/01/16 06:53:34;;;;;;;17.60;7.20;;;-4.30;99.90;;;;;;4992447;28;20702;-60
2022/01/16 06:56:01;;;;;;;18.87;7.03;;;-4.30;99.90;;;;;;4992548;28;20213;-61
2022/01/16 06:58:27;;;;;;;20.57;6.57;;;-4.20;99.90;;;;;;4992203;28;20214;-60
2022/01/16 07:00:53;;;;;;;28.07;6.67;;;-4.20;99.90;;;;;;4992610;28;20190;-59
2022/01/16 07:03:19;;;;;;;18.17;5.47;;;-4.10;99.90;;;;;;4996015;28;20187;-60
2022/01/16 07:05:45;;;;;;;14.57;5.90;;;-4.00;99.90;;;;;;5011940;28;20272;-59
2022/01/16 07:08:11;;;;;;;21.23;6.57;;;-4.00;99.90;;;;;;5011785;28;20639;-61
2022/01/16 07:10:37;;;;;;;40.40;7.70;;;-3.90;99.90;;;;;;5011881;28;20213;-60
2022/01/16 07:13:04;;;;;;;16.33;5.80;;;-3.90;99.90;;;;;;5012349;28;20530;-60
2022/01/16 07:15:30;;;;;;;15.63;5.83;;;-3.80;99.90;;;;;;5011950;28;20206;-60
2022/01/16 07:17:56;;;;;;;25.90;6.27;;;-3.70;99.90;;;;;;5011887;28;20185;-60
2022/01/16 07:20:22;;;;;;;16.13;6.50;;;-3.60;99.90;;;;;;5011460;28;20241;-61
2022/01/16 07:22:48;;;;;;;13.90;5.67;;;-3.50;99.90;;;;;;5011918;28;20186;-60
2022/01/16 07:25:14;;;;;;;18.47;6.23;;;-3.40;99.90;;;;;;4994065;28;20194;-59
2022/01/16 07:27:40;;;;;;;22.50;6.13;;;-3.30;99.90;;;;;;5011667;28;20182;-60
2022/01/16 07:30:07;;;;;;;13.83;5.90;;;-3.20;99.90;;;;;;4994062;28;20579;-60
2022/01/16 07:32:33;;;;;;;20.57;6.73;;;-3.00;99.90;;;;;;4992046;28;20191;-60
2022/01/16 07:34:59;;;;;;;25.10;7.17;;;-2.90;99.90;;;;;;4994830;28;20230;-59
2022/01/16 07:37:25;;;;;;;21.20;7.50;;;-2.80;99.90;;;;;;4995471;28;20186;-60
2022/01/16 07:39:51;;;;;;;15.80;6.63;;;-2.70;99.90;;;;;;4996084;28;20511;-59
2022/01/16 07:42:17;;;;;;;19.40;5.53;;;-2.60;99.90;;;;;;4978119;28;20403;-61
2022/01/16 07:44:43;;;;;;;19.83;6.50;;;-2.50;99.90;;;;;;4995598;28;20623;-59
2022/01/16 07:47:09;;;;;;;17.97;5.63;;;-2.40;99.90;;;;;;4995708;28;20190;-60
2022/01/16 07:49:34;;;;;;;22.40;6.50;;;-2.30;99.90;;;;;;4995433;28;20176;-60
2022/01/16 07:52:00;;;;;;;21.13;6.47;;;-2.20;99.90;;;;;;4995825;28;20201;-61
2022/01/16 07:54:26;;;;;;;24.50;7.83;;;-2.10;99.90;;;;;;4995260;28;20235;-60
2022/01/16 07:56:52;;;;;;;18.63;6.63;;;-2.00;99.90;;;;;;4995703;28;20179;-60
2022/01/16 07:59:17;;;;;;;25.63;7.53;;;-2.00;99.90;;;;;;4995434;28;20273;-60
2022/01/16 08:01:44;;;;;;;25.43;6.83;;;-1.90;99.90;;;;;;4995571;28;20187;-60
2022/01/16 08:04:09;;;;;;;20.17;6.67;;;-1.80;99.90;;;;;;5005477;28;20712;-61
2022/01/16 08:06:35;;;;;;;30.03;7.37;;;-1.70;99.90;;;;;;5014943;28;20183;-60
2022/01/16 08:09:01;;;;;;;23.10;6.83;;;-1.60;99.90;;;;;;5015037;28;20229;-59
2022/01/16 08:11:27;;;;;;;44.93;8.77;;;-1.50;99.90;;;;;;5014729;28;20187;-60
2022/01/16 08:13:53;;;;;;;22.47;8.07;;;-1.50;99.90;;;;;;5014760;28;20599;-61
2022/01/16 08:16:19;;;;;;;25.07;8.43;;;-1.40;99.90;;;;;;5014933;28;20715;-62
2022/01/16 08:18:44;;;;;;;18.13;8.10;;;-1.20;99.90;;;;;;4980709;28;20703;-60
2022/01/16 08:21:10;;;;;;;26.23;8.60;;;-1.20;99.90;;;;;;4997385;28;20190;-60
2022/01/16 08:23:36;;;;;;;28.00;8.57;;;-1.10;99.90;;;;;;5014383;28;20188;-60
2022/01/16 08:26:04;;;;;;;20.40;9.10;;;-1.00;99.90;;;;;;4997090;28;20670;-60
2022/01/16 08:28:30;;;;;;;23.63;8.60;;;-0.90;99.90;;;;;;5009685;28;20228;-61
2022/01/16 08:30:56;;;;;;;24.77;8.83;;;0.10;99.90;;;;;;4995117;28;20177;-60
2022/01/16 08:33:21;;;;;;;28.30;7.63;;;1.00;99.90;;;;;;4994500;28;20184;-61
2022/01/16 08:35:48;;;;;;;19.60;7.80;;;1.20;99.90;;;;;;4994538;28;20607;-60
2022/01/16 08:38:13;;;;;;;22.63;8.40;;;0.80;99.90;;;;;;4994737;28;20242;-63
2022/01/16 08:40:39;;;;;;;22.83;8.33;;;0.40;99.90;;;;;;4995043;28;20216;-60
2022/01/16 08:43:14;;;;;;;24.27;7.17;;;0.10;99.90;;;;;;4977047;28;20285;-60
2022/01/16 08:45:41;;;;;;;32.93;8.90;;;0.00;99.90;;;;;;4993829;28;20189;-60
2022/01/16 08:48:08;;;;;;;24.57;7.70;;;-0.10;99.90;;;;;;4994757;28;20277;-60
2022/01/16 08:50:36;;;;;;;21.70;7.20;;;0.00;99.90;;;;;;4994113;28;20560;-61
2022/01/16 08:53:01;;;;;;;30.87;8.83;;;0.60;99.90;;;;;;4994385;28;20184;-60
2022/01/16 08:55:27;;;;;;;20.50;6.97;;;0.70;99.90;;;;;;4976717;28;20267;-61
2022/01/16 08:57:53;;;;;;;18.53;6.73;;;0.60;99.90;;;;;;4994516;28;20641;-59
2022/01/16 09:00:19;;;;;;;20.27;5.77;;;0.40;99.90;;;;;;4993852;28;20220;-60
2022/01/16 09:02:45;;;;;;;14.77;6.07;;;0.30;99.90;;;;;;4994521;28;20193;-60
2022/01/16 09:05:11;;;;;;;21.93;8.03;;;0.20;99.90;;;;;;5013011;28;20256;-61
2022/01/16 09:07:37;;;;;;;24.00;7.73;;;0.30;99.90;;;;;;5013442;28;20618;-60
2022/01/16 09:10:04;;;;;;;32.40;8.50;;;0.20;99.90;;;;;;5013486;28;20185;-59
2022/01/16 09:12:30;;;;;;;19.53;7.33;;;0.20;99.90;;;;;;5013523;28;20230;-60
2022/01/16 09:14:56;;;;;;;24.77;7.10;;;0.20;99.90;;;;;;5013693;28;20256;-60
2022/01/16 09:17:23;;;;;;;16.20;6.87;;;0.20;99.90;;;;;;5013442;28;20191;-61
2022/01/16 09:19:49;;;;;;;27.90;7.63;;;0.20;99.90;;;;;;4995240;28;20252;-61
2022/01/16 09:22:16;;;;;;;20.60;6.40;;;0.10;99.90;;;;;;5013715;28;20178;-60
2022/01/16 09:24:42;;;;;;;29.53;6.80;;;0.20;99.90;;;;;;5013468;28;20277;-60
2022/01/16 09:27:08;;;;;;;16.73;5.87;;;0.30;99.90;;;;;;5013407;28;20196;-60
2022/01/16 09:29:33;;;;;;;13.40;4.97;;;0.30;99.90;;;;;;4999116;28;20188;-59
2022/01/16 09:32:00;;;;;;;18.10;5.43;;;0.30;99.90;;;;;;4993982;28;20261;-61
2022/01/16 09:34:27;;;;;;;22.37;6.40;;;0.40;99.90;;;;;;4993281;28;20190;-60
2022/01/16 09:36:52;;;;;;;31.07;8.17;;;0.50;99.90;;;;;;4993910;28;20181;-60
2022/01/16 09:39:18;;;;;;;34.77;11.23;;;0.60;99.90;;;;;;4975596;28;20546;-60
2022/01/16 09:41:45;;;;;;;62.83;22.70;;;0.60;99.90;;;;;;4993440;28;20187;-59
2022/01/16 09:44:11;;;;;;;20.77;8.30;;;0.60;99.90;;;;;;4992964;28;20244;-60
2022/01/16 09:46:37;;;;;;;17.90;7.23;;;0.60;99.90;;;;;;4975931;28;20190;-61
2022/01/16 09:49:04;;;;;;;18.80;6.50;;;0.60;99.90;;;;;;4975340;28;20187;-60
2022/01/16 09:51:31;;;;;;;45.67;13.60;;;0.60;99.90;;;;;;4993081;28;20185;-61
2022/01/16 09:53:58;;;;;;;26.77;6.10;;;0.50;99.90;;;;;;4993358;28;20179;-60
2022/01/16 09:56:24;;;;;;;19.07;6.00;;;0.60;99.90;;;;;;4992577;28;20212;-62
2022/01/16 09:58:51;;;;;;;15.83;6.00;;;0.70;99.90;;;;;;4975878;28;20579;-61
2022/01/16 10:01:16;;;;;;;13.70;5.43;;;0.70;99.90;;;;;;4992929;28;20761;-60
2022/01/16 10:03:46;;;;;;;21.77;5.87;;;0.70;99.90;;;;;;4999781;28;20267;-61
2022/01/16 10:06:11;;;;;;;30.73;6.60;;;0.80;99.90;;;;;;5012613;28;20273;-61
2022/01/16 10:08:39;;;;;;;11.43;4.47;;;0.90;99.90;;;;;;5012322;28;20341;-60
2022/01/16 10:11:39;;;;;;;25.57;6.77;;;0.90;99.90;;;;;;5012398;28;20185;-61
2022/01/16 10:16:38;;;;;;;15.63;5.30;;;1.10;99.90;;;;;;5012247;28;20206;-60
2022/01/16 10:19:05;;;;;;;35.57;7.67;;;1.10;99.90;;;;;;5012000;28;20186;-61
2022/01/16 10:21:38;;;;;;;20.40;5.40;;;1.20;99.90;;;;;;5012296;28;20197;-61
2022/01/16 10:24:16;;;;;;;20.23;5.73;;;1.40;99.90;;;;;;4994817;28;20198;-60
2022/01/16 10:26:43;;;;;;;22.77;6.97;;;1.70;99.90;;;;;;5011729;28;20234;-62
2022/01/16 10:29:15;;;;;;;13.17;5.87;;;1.70;99.90;;;;;;4984689;28;20190;-62
2022/01/16 10:31:41;;;;;;;14.97;5.57;;;1.70;99.90;;;;;;4991747;28;20466;-61
2022/01/16 10:34:27;;;;;;;48.47;9.07;;;1.60;99.70;;;;;;4975261;28;20633;-60
2022/01/16 10:36:53;;;;;;;17.27;4.77;;;1.60;99.90;;;;;;4975266;28;20259;-60
2022/01/16 10:39:19;;;;;;;10.60;4.60;;;1.60;99.70;;;;;;4992284;28;20188;-63
2022/01/16 10:41:46;;;;;;;18.03;5.57;;;1.60;99.60;;;;;;4992321;28;20203;-60
2022/01/16 10:44:30;;;;;;;16.67;5.30;;;1.60;99.10;;;;;;4992533;28;20172;-61
2022/01/16 10:46:56;;;;;;;15.23;5.60;;;1.70;98.90;;;;;;4974898;28;20229;-62
2022/01/16 10:49:22;;;;;;;23.33;5.90;;;1.70;99.00;;;;;;4991700;28;20599;-62
2022/01/16 10:52:01;;;;;;;22.63;6.20;;;1.70;98.70;;;;;;4974685;28;20277;-61
2022/01/16 10:54:37;;;;;;;24.37;5.00;;;1.90;98.70;;;;;;4992191;28;20187;-60
2022/01/16 10:57:22;;;;;;;48.17;9.63;;;1.90;98.20;;;;;;4992388;28;20176;-60
2022/01/16 10:59:48;;;;;;;23.60;6.23;;;1.90;98.30;;;;;;4992583;28;20582;-61
2022/01/16 11:02:14;;;;;;;14.33;5.43;;;2.00;98.40;;;;;;4992265;28;20177;-62
2022/01/16 11:04:41;;;;;;;79.83;9.57;;;2.00;97.90;;;;;;4988883;28;20274;-62
2022/01/16 11:07:06;;;;;;;20.30;5.50;;;2.00;98.20;;;;;;4993937;28;20198;-62
2022/01/16 11:09:32;;;;;;;26.30;6.30;;;2.10;97.80;;;;;;5011212;28;20183;-62
2022/01/16 11:11:59;;;;;;;35.57;7.20;;;2.10;98.00;;;;;;4993730;28;20213;-61
2022/01/16 11:14:32;;;;;;;29.97;5.73;;;2.10;98.00;;;;;;5010159;28;20188;-61
2022/01/16 11:16:59;;;;;;;31.87;7.10;;;2.20;98.00;;;;;;5011215;28;20175;-61
2022/01/16 11:19:26;;;;;;;15.47;4.87;;;2.40;97.70;;;;;;5010645;28;20238;-61
2022/01/16 11:21:55;;;;;;;13.40;5.43;;;2.50;96.40;;;;;;4993691;28;20270;-61
2022/01/16 11:24:34;;;;;;;20.03;4.97;;;2.60;95.70;;;;;;5005671;28;20176;-61
2022/01/16 11:27:00;;;;;;;21.07;5.13;;;2.70;94.90;;;;;;4992544;28;20177;-62
2022/01/16 11:29:29;;;;;;;12.40;4.80;;;2.80;93.90;;;;;;4991883;28;20228;-63
2022/01/16 11:31:56;;;;;;;20.90;5.40;;;2.90;93.80;;;;;;4990545;28;20184;-62
2022/01/16 11:34:22;;;;;;;16.93;5.30;;;2.90;93.80;;;;;;4990908;28;20189;-67
2022/01/16 11:36:48;;;;;;;13.53;3.63;;;2.90;92.60;;;;;;4991856;28;20176;-62
2022/01/16 11:39:14;;;;;;;19.07;4.23;;;2.90;91.90;;;;;;4974579;28;20239;-62
2022/01/16 11:41:56;;;;;;;11.17;3.40;;;2.80;91.50;;;;;;4990290;28;20192;-61
2022/01/16 11:44:27;;;;;;;14.43;4.10;;;2.70;91.00;;;;;;5000482;28;20248;-64
2022/01/16 11:46:55;;;;;;;15.20;5.20;;;2.60;91.00;;;;;;5006639;28;20244;-63
2022/01/16 11:49:32;;;;;;;15.90;4.17;;;2.60;90.90;;;;;;5005777;28;20196;-62
2022/01/16 11:52:07;;;;;;;12.33;4.03;;;2.60;90.70;;;;;;5005813;28;20202;-58
2022/01/16 11:54:44;;;;;;;13.93;4.57;;;2.60;90.80;;;;;;5009167;28;20198;-60
2022/01/16 11:57:26;;;;;;;11.17;4.73;;;2.60;91.00;;;;;;4999679;28;20192;-60
2022/01/16 12:00:11;;;;;;;15.13;4.43;;;2.70;91.30;;;;;;4999299;28;20188;-63
2022/01/16 12:02:43;;;;;;;10.27;4.57;;;2.70;90.60;;;;;;4999618;28;20176;-60
2022/01/16 12:05:09;;;;;;;29.07;6.70;;;2.80;90.90;;;;;;5000814;28;20187;-61
2022/01/16 12:07:35;;;;;;;18.73;5.37;;;3.00;91.30;;;;;;4998172;28;20543;-59
2022/01/16 12:10:05;;;;;;;108.47;12.13;;;3.20;90.90;;;;;;5000230;28;20187;-62
2022/01/16 12:12:31;;;;;;;23.10;6.57;;;3.50;91.20;;;;;;5000307;28;20187;-65
2022/01/16 12:15:06;;;;;;;35.07;7.40;;;3.70;90.80;;;;;;5000229;28;20211;-65
2022/01/16 12:17:44;;;;;;;16.93;6.63;;;4.10;90.30;;;;;;4998898;28;20248;-62
2022/01/16 12:20:13;;;;;;;22.63;6.20;;;4.30;89.00;;;;;;4999944;28;20223;-61
2022/01/16 12:22:46;;;;;;;30.27;7.10;;;4.60;87.70;;;;;;5002155;28;20204;-60
2022/01/16 12:25:23;;;;;;;35.63;7.13;;;4.90;86.70;;;;;;5002559;28;20194;-62
2022/01/16 12:27:57;;;;;;;15.77;5.77;;;4.90;86.70;;;;;;5002758;28;20181;-62
2022/01/16 12:30:33;;;;;;;21.27;6.27;;;5.00;84.60;;;;;;5003081;28;20242;-62
2022/01/16 12:33:08;;;;;;;16.70;6.07;;;4.70;83.90;;;;;;5002599;28;20182;-63
2022/01/16 12:35:55;;;;;;;22.97;6.10;;;4.60;84.80;;;;;;4986001;28;20218;-65
2022/01/16 12:38:32;;;;;;;18.00;6.57;;;4.40;85.10;;;;;;4988216;28;20253;-62
2022/01/16 12:40:58;;;;;;;26.07;6.77;;;4.20;83.40;;;;;;5003151;28;20186;-62
2022/01/16 12:43:40;;;;;;;13.57;5.70;;;4.50;84.50;;;;;;5003204;28;20264;-63
2022/01/16 12:46:08;;;;;;;20.27;7.63;;;4.80;82.50;;;;;;4986219;28;20276;-61
2022/01/16 12:48:43;;;;;;;26.13;7.00;;;4.90;82.10;;;;;;5002745;28;20218;-62
2022/01/16 12:51:09;;;;;;;25.63;7.67;;;4.90;81.20;;;;;;5002546;28;20184;-62
2022/01/16 12:53:38;;;;;;;21.70;7.50;;;4.90;81.50;;;;;;5002866;28;20213;-61
2022/01/16 12:56:28;;;;;;;29.53;8.03;;;5.00;80.00;;;;;;5003049;28;20302;-63
2022/01/16 12:59:05;;;;;;;21.43;6.90;;;4.90;80.70;;;;;;5003161;28;20649;-62
2022/01/16 13:01:32;;;;;;;25.00;7.47;;;4.90;79.60;;;;;;5002196;28;20409;-61
2022/01/16 13:03:58;;;;;;;17.23;6.80;;;4.90;80.00;;;;;;4984662;28;20195;-62
2022/01/16 13:06:35;;;;;;;47.17;8.67;;;4.80;79.50;;;;;;5002157;28;20213;-62
2022/01/16 13:09:03;;;;;;;34.27;8.30;;;4.90;81.30;;;;;;5002606;28;20182;-61
2022/01/16 13:11:37;;;;;;;36.20;8.97;;;5.00;81.80;;;;;;5002078;28;20199;-61
2022/01/16 13:14:08;;;;;;;19.23;6.83;;;5.10;80.10;;;;;;5002683;28;20238;-62
2022/01/16 13:16:37;;;;;;;35.10;7.53;;;5.00;79.70;;;;;;5001669;28;20308;-61
2022/01/16 13:19:08;;;;;;;19.53;7.93;;;5.00;80.30;;;;;;5009003;28;20191;-62
2022/01/16 13:22:11;;;;;;;16.77;7.23;;;5.00;80.00;;;;;;5011622;28;20170;-62
2022/01/16 13:24:36;;;;;;;23.13;7.70;;;4.90;79.30;;;;;;5011627;28;20203;-61
2022/01/16 13:27:06;;;;;;;15.00;6.93;;;5.10;79.80;;;;;;5012214;28;20224;-61
2022/01/16 13:29:34;;;;;;;17.07;6.23;;;5.10;79.60;;;;;;4998455;28;20277;-61
2022/01/16 13:32:03;;;;;;;14.30;6.57;;;5.00;78.80;;;;;;4991291;28;20186;-64
2022/01/16 13:34:33;;;;;;;21.20;7.83;;;4.90;79.60;;;;;;4991678;28;20241;-64
2022/01/16 13:37:00;;;;;;;37.73;8.77;;;4.70;78.80;;;;;;4991936;28;20203;-62